Terminal Aerodrome Forecast
Issued by NWS

Home | Current Version | Previous Version | Text Only | Print | Product List | Glossary On
Versions: 1 2 3 4 5 6 7 8 9 10 11 12 13 14 15 16 17 18 19 20
000
FTUS45 KABQ 012300
TAFTCC
TAF
KTCC 012340Z 0200/0224 10006KT P6SM BKN040
     FM020300 13006KT P6SM BKN030
     FM020900 18006KT P6SM BKN015
     FM021500 24015G24KT P6SM SKC=

USA.gov is the U.S. government's official web portal to all federal, state and local government web resources and services.